Terminal Aerodrome Forecast
Issued by NWS Memphis, TN

Home | Current Version | Previous Version | Text Only | Print | Product List | Glossary On
Versions: 1 2 3 4 5 6 7 8 9 10 11 12 13 14 15 16 17 18 19 20
000
FTUS44 KMEG 041352 AAA
TAFMKL
TAF AMD
KMKL 041352Z 0414/0512 22003KT P6SM BKN008 OVC020
      TEMPO 0414/0416 OVC004
     FM041600 23007KT P6SM VCSH BKN020 OVC100
     FM042000 23007KT P6SM VCTS SCT030CB OVC100
     FM050300 18003KT P6SM VCSH SCT030 OVC100=

USA.gov is the U.S. government's official web portal to all federal, state and local government web resources and services.